EJU45P EGNT-LEIB
Flight info
| Callsign | EJU45P |
|---|---|
| Flight time | 2h 28m |
| Altitude | 37000 |
| Route | GIRLI P18 GASKO P16 RIBEL UP16 CROFT UL612 HON DCT SITET UN859 SOPIL DCT BALAN DCT EVPOK DCT NARAK DCT GAI DCT LOMRA DCT ROCAN DCT PUMAL DCT XEPLA DCT BCN Z174 CORDA |
| Aircraft | A319/M-SDE3FGHIRWY/LB1 |
Departure
| Time | 2026-05-05 13:59 |
|---|---|
| Airport | Newcastle International Airport (EGNT) |
Arrival
| Time | 2026-05-05 16:27 |
|---|---|
| Airport | Ibiza Airport (LEIB) |
| Time | Latitude | Longitude | Altitude | Speed | Heading |
|---|---|---|---|---|---|
| 2026-05-05 13:42 | 55.03675 | -1.70844 | 267 ft | 0 kts | 4° |
| 2026-05-05 13:53 | 55.03667 | -1.70845 | 267 ft | 4 kts | 4° |
| 2026-05-05 13:53 | 55.03641 | -1.70849 | 267 ft | 2 kts | 4° |
| 2026-05-05 13:53 | 55.03618 | -1.70847 | 267 ft | 4 kts | 330° |
| 2026-05-05 13:53 | 55.03602 | -1.70815 | 267 ft | 4 kts | 288° |
| 2026-05-05 13:54 | 55.03597 | -1.70769 | 267 ft | 4 kts | 275° |
| 2026-05-05 13:54 | 55.03595 | -1.70732 | 267 ft | 3 kts | 275° |
| 2026-05-05 13:54 | 55.03592 | -1.70687 | 267 ft | 4 kts | 287° |
| 2026-05-05 13:54 | 55.03580 | -1.70648 | 267 ft | 4 kts | 327° |
| 2026-05-05 13:55 | 55.03559 | -1.70640 | 267 ft | 4 kts | 1° |
| 2026-05-05 13:55 | 55.03551 | -1.70641 | 267 ft | 0 kts | 1° |
| 2026-05-05 13:56 | 55.03552 | -1.70641 | 267 ft | 0 kts | 1° |
| 2026-05-05 13:56 | 55.03557 | -1.70647 | 267 ft | 1 kts | 327° |
| 2026-05-05 13:57 | 55.03555 | -1.70674 | 267 ft | 6 kts | 259° |
| 2026-05-05 13:57 | 55.03527 | -1.70726 | 268 ft | 7 kts | 193° |
| 2026-05-05 13:57 | 55.03476 | -1.70679 | 268 ft | 11 kts | 130° |
| 2026-05-05 13:57 | 55.03396 | -1.70633 | 268 ft | 14 kts | 161° |
| 2026-05-05 13:58 | 55.03395 | -1.70476 | 267 ft | 17 kts | 60° |
| 2026-05-05 13:58 | 55.03500 | -1.70078 | 263 ft | 73 kts | 65° |
| 2026-05-05 13:58 | 55.03818 | -1.68904 | 259 ft | 137 kts | 64° |
| 2026-05-05 13:58 | 55.04245 | -1.67304 | 704 ft | 150 kts | 62° |
| 2026-05-05 13:59 | 55.05257 | -1.63507 | 1711 ft | 195 kts | 60° |
| 2026-05-05 13:59 | 55.05848 | -1.61289 | 2461 ft | 205 kts | 60° |
| 2026-05-05 14:00 | 55.06658 | -1.56450 | 4204 ft | 224 kts | 99° |
| 2026-05-05 14:00 | 55.06236 | -1.54773 | 4734 ft | 234 kts | 127° |
| 2026-05-05 14:00 | 55.04258 | -1.52805 | 5402 ft | 267 kts | 171° |
| 2026-05-05 14:00 | 55.02364 | -1.52545 | 6181 ft | 277 kts | 182° |
| 2026-05-05 14:01 | 55.00421 | -1.52661 | 7139 ft | 280 kts | 185° |
| 2026-05-05 14:01 | 54.98472 | -1.53033 | 7802 ft | 284 kts | 195° |
| 2026-05-05 14:01 | 54.96625 | -1.54190 | 8023 ft | 281 kts | 210° |
| 2026-05-05 14:01 | 54.94955 | -1.55917 | 8078 ft | 280 kts | 216° |
| 2026-05-05 14:02 | 54.93295 | -1.57691 | 8079 ft | 279 kts | 214° |
| 2026-05-05 14:02 | 54.91624 | -1.59411 | 8085 ft | 279 kts | 212° |
| 2026-05-05 14:02 | 54.89946 | -1.61117 | 8080 ft | 279 kts | 212° |
| 2026-05-05 14:02 | 54.88267 | -1.62816 | 8081 ft | 279 kts | 213° |
| 2026-05-05 14:03 | 54.86592 | -1.64518 | 8070 ft | 279 kts | 213° |
| 2026-05-05 14:03 | 54.84923 | -1.66225 | 8068 ft | 279 kts | 213° |
| 2026-05-05 14:03 | 54.83252 | -1.67938 | 8057 ft | 279 kts | 214° |
| 2026-05-05 14:03 | 54.81583 | -1.69643 | 8048 ft | 279 kts | 213° |
| 2026-05-05 14:04 | 54.79910 | -1.71351 | 8051 ft | 279 kts | 214° |
| 2026-05-05 14:04 | 54.78259 | -1.73036 | 8055 ft | 279 kts | 214° |
| 2026-05-05 14:04 | 54.76565 | -1.74765 | 8059 ft | 279 kts | 214° |
| 2026-05-05 14:04 | 54.74894 | -1.76470 | 8060 ft | 279 kts | 214° |
| 2026-05-05 14:05 | 54.73242 | -1.78148 | 8039 ft | 280 kts | 212° |
| 2026-05-05 14:05 | 54.71539 | -1.79786 | 8051 ft | 282 kts | 207° |
| 2026-05-05 14:05 | 54.69651 | -1.80777 | 8213 ft | 291 kts | 191° |
| 2026-05-05 14:05 | 54.67652 | -1.81369 | 9202 ft | 291 kts | 193° |
| 2026-05-05 14:06 | 54.65655 | -1.81996 | 10173 ft | 294 kts | 192° |
| 2026-05-05 14:06 | 54.63577 | -1.82669 | 10588 ft | 316 kts | 193° |
| 2026-05-05 14:06 | 54.61337 | -1.83402 | 10862 ft | 339 kts | 193° |
| 2026-05-05 14:06 | 54.58962 | -1.84173 | 11361 ft | 352 kts | 192° |
| 2026-05-05 14:07 | 54.56537 | -1.84949 | 12119 ft | 357 kts | 193° |
| 2026-05-05 14:07 | 54.54050 | -1.85734 | 12932 ft | 360 kts | 193° |
| 2026-05-05 14:07 | 54.51607 | -1.86504 | 13709 ft | 363 kts | 193° |
| 2026-05-05 14:07 | 54.49078 | -1.87298 | 14428 ft | 367 kts | 193° |
| 2026-05-05 14:08 | 54.46555 | -1.88087 | 15100 ft | 370 kts | 193° |
| 2026-05-05 14:08 | 54.44016 | -1.88881 | 15785 ft | 373 kts | 193° |
| 2026-05-05 14:08 | 54.41452 | -1.89682 | 16478 ft | 376 kts | 193° |
| 2026-05-05 14:08 | 54.38870 | -1.90491 | 17180 ft | 378 kts | 193° |
| 2026-05-05 14:09 | 54.36269 | -1.91303 | 17873 ft | 382 kts | 193° |
| 2026-05-05 14:09 | 54.33647 | -1.92116 | 18526 ft | 385 kts | 193° |
| 2026-05-05 14:09 | 54.31039 | -1.92921 | 19122 ft | 387 kts | 193° |
| 2026-05-05 14:09 | 54.28345 | -1.93753 | 19737 ft | 390 kts | 193° |
| 2026-05-05 14:10 | 54.25682 | -1.94657 | 20338 ft | 390 kts | 198° |
| 2026-05-05 14:10 | 54.23166 | -1.96214 | 20894 ft | 390 kts | 208° |
| 2026-05-05 14:10 | 54.20829 | -1.98554 | 21398 ft | 391 kts | 218° |
| 2026-05-05 14:10 | 54.18759 | -2.01570 | 21920 ft | 392 kts | 225° |
| 2026-05-05 14:11 | 54.16747 | -2.04831 | 22457 ft | 395 kts | 225° |
| 2026-05-05 14:11 | 54.14766 | -2.08011 | 22977 ft | 398 kts | 224° |
| 2026-05-05 14:11 | 54.12737 | -2.11254 | 23489 ft | 401 kts | 224° |
| 2026-05-05 14:11 | 54.10695 | -2.14511 | 23959 ft | 403 kts | 224° |
| 2026-05-05 14:12 | 54.08641 | -2.17775 | 24393 ft | 405 kts | 224° |
| 2026-05-05 14:12 | 54.06574 | -2.21059 | 24803 ft | 407 kts | 224° |
| 2026-05-05 14:12 | 54.04501 | -2.24360 | 25217 ft | 410 kts | 224° |
| 2026-05-05 14:12 | 54.02312 | -2.27500 | 25611 ft | 414 kts | 217° |
| 2026-05-05 14:13 | 53.99823 | -2.30015 | 26014 ft | 419 kts | 207° |
| 2026-05-05 14:13 | 53.97109 | -2.31877 | 26396 ft | 423 kts | 202° |
| 2026-05-05 14:13 | 53.94341 | -2.33643 | 26739 ft | 427 kts | 202° |
| 2026-05-05 14:13 | 53.91551 | -2.35429 | 27093 ft | 430 kts | 202° |
| 2026-05-05 14:14 | 53.88742 | -2.37230 | 27462 ft | 433 kts | 202° |
| 2026-05-05 14:14 | 53.85921 | -2.39047 | 27834 ft | 435 kts | 202° |
| 2026-05-05 14:14 | 53.83082 | -2.40877 | 28199 ft | 438 kts | 202° |
| 2026-05-05 14:14 | 53.80226 | -2.42715 | 28555 ft | 440 kts | 202° |
| 2026-05-05 14:15 | 53.77358 | -2.44559 | 28892 ft | 443 kts | 202° |
| 2026-05-05 14:15 | 53.74473 | -2.46405 | 29232 ft | 445 kts | 202° |
| 2026-05-05 14:15 | 53.71566 | -2.48262 | 29564 ft | 447 kts | 201° |
| 2026-05-05 14:15 | 53.68638 | -2.50087 | 29847 ft | 451 kts | 199° |
| 2026-05-05 14:16 | 53.65578 | -2.51264 | 30238 ft | 452 kts | 188° |
| 2026-05-05 14:16 | 53.62436 | -2.51535 | 30607 ft | 453 kts | 178° |
| 2026-05-05 14:16 | 53.59309 | -2.50888 | 31011 ft | 453 kts | 168° |
| 2026-05-05 14:16 | 53.56294 | -2.49348 | 31440 ft | 454 kts | 159° |
| 2026-05-05 14:17 | 53.53383 | -2.47292 | 31849 ft | 453 kts | 158° |
| 2026-05-05 14:17 | 53.50482 | -2.45235 | 32261 ft | 452 kts | 158° |
| 2026-05-05 14:17 | 53.47583 | -2.43183 | 32669 ft | 451 kts | 158° |
| 2026-05-05 14:17 | 53.45632 | -2.41805 | 32948 ft | 451 kts | 158° |
| 2026-05-05 14:18 | 53.42743 | -2.39768 | 33359 ft | 450 kts | 158° |
| 2026-05-05 14:18 | 53.39862 | -2.37741 | 33790 ft | 449 kts | 158° |
| 2026-05-05 14:18 | 53.36990 | -2.35722 | 34171 ft | 448 kts | 159° |
| 2026-05-05 14:18 | 53.34119 | -2.33707 | 34515 ft | 447 kts | 158° |
| 2026-05-05 14:19 | 53.31242 | -2.31689 | 34821 ft | 448 kts | 159° |
| 2026-05-05 14:19 | 53.28368 | -2.29681 | 35116 ft | 449 kts | 159° |
| 2026-05-05 14:19 | 53.25485 | -2.27672 | 35393 ft | 449 kts | 159° |
| 2026-05-05 14:19 | 53.22597 | -2.25662 | 35671 ft | 450 kts | 158° |
| 2026-05-05 14:20 | 53.19709 | -2.23654 | 35928 ft | 450 kts | 159° |
| 2026-05-05 14:20 | 53.16813 | -2.21644 | 36178 ft | 451 kts | 158° |
| 2026-05-05 14:20 | 53.13912 | -2.19635 | 36430 ft | 451 kts | 158° |
| 2026-05-05 14:20 | 53.11011 | -2.17624 | 36686 ft | 452 kts | 158° |
| 2026-05-05 14:21 | 53.08108 | -2.15614 | 36921 ft | 452 kts | 159° |
| 2026-05-05 14:21 | 53.05200 | -2.13601 | 37011 ft | 454 kts | 159° |
| 2026-05-05 14:21 | 52.99377 | -2.09576 | 37017 ft | 454 kts | 159° |
| 2026-05-05 14:22 | 52.93539 | -2.05551 | 37005 ft | 455 kts | 159° |
| 2026-05-05 14:22 | 52.87699 | -2.01544 | 37003 ft | 454 kts | 159° |
| 2026-05-05 14:23 | 52.81874 | -1.97563 | 37003 ft | 452 kts | 158° |
| 2026-05-05 14:23 | 52.76060 | -1.93597 | 37006 ft | 452 kts | 159° |
| 2026-05-05 14:24 | 52.70244 | -1.89646 | 37031 ft | 452 kts | 159° |
| 2026-05-05 14:24 | 52.64437 | -1.85712 | 37013 ft | 451 kts | 159° |
| 2026-05-05 14:25 | 52.58637 | -1.81800 | 37012 ft | 451 kts | 159° |
| 2026-05-05 14:25 | 52.52833 | -1.77886 | 37015 ft | 450 kts | 159° |
| 2026-05-05 14:26 | 52.47037 | -1.73986 | 37017 ft | 450 kts | 159° |
| 2026-05-05 14:26 | 52.41240 | -1.70089 | 37013 ft | 450 kts | 159° |
| 2026-05-05 14:27 | 52.35442 | -1.66219 | 37012 ft | 450 kts | 159° |
| 2026-05-05 14:27 | 52.29726 | -1.62023 | 37008 ft | 450 kts | 155° |
| 2026-05-05 14:28 | 52.24105 | -1.57508 | 37007 ft | 450 kts | 155° |
| 2026-05-05 14:28 | 52.18479 | -1.53015 | 37015 ft | 450 kts | 155° |
| 2026-05-05 14:29 | 52.12828 | -1.48643 | 37015 ft | 449 kts | 156° |
| 2026-05-05 14:29 | 52.07173 | -1.44322 | 37015 ft | 449 kts | 156° |
| 2026-05-05 14:30 | 52.01523 | -1.40014 | 36989 ft | 448 kts | 156° |
| 2026-05-05 14:30 | 51.95888 | -1.35708 | 36991 ft | 448 kts | 156° |
| 2026-05-05 14:31 | 51.90253 | -1.31414 | 36992 ft | 447 kts | 156° |
| 2026-05-05 14:31 | 51.84622 | -1.27134 | 36991 ft | 447 kts | 156° |
| 2026-05-05 14:32 | 51.78992 | -1.22871 | 36985 ft | 447 kts | 156° |
| 2026-05-05 14:32 | 51.73369 | -1.18618 | 36988 ft | 446 kts | 156° |
| 2026-05-05 14:33 | 51.67751 | -1.14369 | 36988 ft | 446 kts | 156° |
| 2026-05-05 14:33 | 51.62129 | -1.10153 | 36991 ft | 445 kts | 156° |
| 2026-05-05 14:34 | 51.56515 | -1.05954 | 36986 ft | 444 kts | 156° |
| 2026-05-05 14:34 | 51.50912 | -1.01757 | 36983 ft | 445 kts | 156° |
| 2026-05-05 14:35 | 51.45303 | -0.97570 | 36982 ft | 445 kts | 156° |
| 2026-05-05 14:35 | 51.39695 | -0.93397 | 36967 ft | 444 kts | 156° |
| 2026-05-05 14:36 | 51.34084 | -0.89243 | 36972 ft | 444 kts | 156° |
| 2026-05-05 14:36 | 51.28476 | -0.85099 | 36981 ft | 444 kts | 156° |
| 2026-05-05 14:37 | 51.22867 | -0.80957 | 36984 ft | 444 kts | 156° |
| 2026-05-05 14:37 | 51.17268 | -0.76838 | 36986 ft | 443 kts | 156° |
| 2026-05-05 14:38 | 51.11661 | -0.72724 | 36974 ft | 443 kts | 156° |
| 2026-05-05 14:38 | 51.06065 | -0.68627 | 36966 ft | 443 kts | 156° |
| 2026-05-05 14:39 | 51.00457 | -0.64543 | 36947 ft | 443 kts | 156° |
| 2026-05-05 14:39 | 50.94850 | -0.60462 | 36948 ft | 443 kts | 156° |
| 2026-05-05 14:40 | 50.89246 | -0.56390 | 36949 ft | 443 kts | 156° |
| 2026-05-05 14:40 | 50.83640 | -0.52333 | 36943 ft | 443 kts | 156° |
| 2026-05-05 14:41 | 50.78045 | -0.48294 | 36948 ft | 442 kts | 156° |
| 2026-05-05 14:41 | 50.72453 | -0.44266 | 36941 ft | 442 kts | 156° |
| 2026-05-05 14:42 | 50.66852 | -0.40239 | 36944 ft | 442 kts | 156° |
| 2026-05-05 14:42 | 50.61247 | -0.36223 | 36927 ft | 443 kts | 156° |
| 2026-05-05 14:43 | 50.55626 | -0.32208 | 36929 ft | 444 kts | 156° |
| 2026-05-05 14:43 | 50.49997 | -0.28191 | 36929 ft | 444 kts | 156° |
| 2026-05-05 14:44 | 50.44361 | -0.24194 | 36931 ft | 445 kts | 156° |
| 2026-05-05 14:44 | 50.38728 | -0.20208 | 36932 ft | 444 kts | 156° |
| 2026-05-05 14:45 | 50.33090 | -0.16222 | 36937 ft | 444 kts | 156° |
| 2026-05-05 14:45 | 50.27449 | -0.12242 | 36937 ft | 444 kts | 156° |
| 2026-05-05 14:46 | 50.21814 | -0.08273 | 36932 ft | 444 kts | 156° |
| 2026-05-05 14:46 | 50.16176 | -0.04329 | 36945 ft | 444 kts | 156° |
| 2026-05-05 14:47 | 50.10529 | -0.00431 | 36937 ft | 443 kts | 160° |
| 2026-05-05 14:47 | 50.04627 | 0.02131 | 36950 ft | 440 kts | 166° |
| 2026-05-05 14:48 | 49.98706 | 0.04462 | 36942 ft | 439 kts | 166° |
| 2026-05-05 14:48 | 49.92788 | 0.06781 | 36937 ft | 438 kts | 166° |
| 2026-05-05 14:49 | 49.86888 | 0.09096 | 36946 ft | 437 kts | 166° |
| 2026-05-05 14:49 | 49.81006 | 0.11394 | 36938 ft | 436 kts | 166° |
| 2026-05-05 14:50 | 49.75131 | 0.13691 | 36923 ft | 436 kts | 166° |
| 2026-05-05 14:50 | 49.69254 | 0.15979 | 36929 ft | 435 kts | 166° |
| 2026-05-05 14:51 | 49.63389 | 0.18287 | 36934 ft | 434 kts | 165° |
| 2026-05-05 14:51 | 49.57554 | 0.20655 | 36929 ft | 434 kts | 165° |
| 2026-05-05 14:52 | 49.51719 | 0.23021 | 36916 ft | 434 kts | 165° |
| 2026-05-05 14:52 | 49.45866 | 0.25367 | 36888 ft | 435 kts | 165° |
| 2026-05-05 14:53 | 49.40016 | 0.27699 | 36892 ft | 434 kts | 165° |
| 2026-05-05 14:53 | 49.34204 | 0.30022 | 36889 ft | 435 kts | 165° |
| 2026-05-05 14:54 | 49.28344 | 0.32375 | 36888 ft | 435 kts | 164° |
| 2026-05-05 14:54 | 49.22501 | 0.34842 | 36890 ft | 436 kts | 164° |
| 2026-05-05 14:55 | 49.16666 | 0.37340 | 36895 ft | 436 kts | 164° |
| 2026-05-05 14:55 | 49.10819 | 0.39817 | 36893 ft | 436 kts | 164° |
| 2026-05-05 14:56 | 49.04964 | 0.42267 | 36886 ft | 437 kts | 164° |
| 2026-05-05 14:56 | 48.99096 | 0.44708 | 36884 ft | 437 kts | 164° |
| 2026-05-05 14:57 | 48.93221 | 0.47156 | 36885 ft | 438 kts | 164° |
| 2026-05-05 14:57 | 48.87349 | 0.49596 | 36883 ft | 438 kts | 164° |
| 2026-05-05 14:58 | 48.81475 | 0.52042 | 36878 ft | 438 kts | 164° |
| 2026-05-05 14:58 | 48.75592 | 0.54447 | 36884 ft | 438 kts | 165° |
| 2026-05-05 14:59 | 48.69695 | 0.56745 | 36876 ft | 438 kts | 165° |
| 2026-05-05 14:59 | 48.63789 | 0.59020 | 36874 ft | 438 kts | 165° |
| 2026-05-05 15:00 | 48.58836 | 0.60944 | 36871 ft | 439 kts | 165° |
| 2026-05-05 15:00 | 48.52924 | 0.63236 | 36872 ft | 439 kts | 165° |
| 2026-05-05 15:01 | 48.47021 | 0.65588 | 36866 ft | 439 kts | 164° |
| 2026-05-05 15:01 | 48.41123 | 0.68013 | 36863 ft | 440 kts | 164° |
| 2026-05-05 15:02 | 48.35217 | 0.70434 | 36852 ft | 440 kts | 164° |
| 2026-05-05 15:02 | 48.29308 | 0.72829 | 36851 ft | 440 kts | 164° |
| 2026-05-05 15:03 | 48.23397 | 0.75212 | 36848 ft | 440 kts | 165° |
| 2026-05-05 15:03 | 48.17475 | 0.77552 | 36836 ft | 440 kts | 165° |
| 2026-05-05 15:04 | 48.11541 | 0.79865 | 36826 ft | 441 kts | 165° |
| 2026-05-05 15:04 | 48.05606 | 0.82173 | 36826 ft | 441 kts | 165° |
| 2026-05-05 15:05 | 47.96706 | 0.85653 | 36795 ft | 441 kts | 165° |
| 2026-05-05 15:06 | 47.90761 | 0.87982 | 36797 ft | 442 kts | 165° |
| 2026-05-05 15:06 | 47.84816 | 0.90301 | 36803 ft | 442 kts | 165° |
| 2026-05-05 15:07 | 47.78858 | 0.92609 | 36815 ft | 442 kts | 166° |
| 2026-05-05 15:07 | 47.72894 | 0.94909 | 36816 ft | 443 kts | 166° |
| 2026-05-05 15:08 | 47.66937 | 0.97208 | 36822 ft | 443 kts | 166° |
| 2026-05-05 15:08 | 47.60974 | 0.99512 | 36828 ft | 443 kts | 166° |
| 2026-05-05 15:09 | 47.55015 | 1.01807 | 36828 ft | 443 kts | 166° |
| 2026-05-05 15:09 | 47.49049 | 1.04091 | 36840 ft | 443 kts | 166° |
| 2026-05-05 15:10 | 47.43057 | 1.06158 | 36841 ft | 442 kts | 173° |
| 2026-05-05 15:10 | 47.36923 | 1.06322 | 36842 ft | 441 kts | 181° |
| 2026-05-05 15:11 | 47.30786 | 1.06173 | 36847 ft | 441 kts | 181° |
| 2026-05-05 15:11 | 47.24652 | 1.06021 | 36849 ft | 441 kts | 181° |
| 2026-05-05 15:12 | 47.18521 | 1.05865 | 36844 ft | 441 kts | 181° |
| 2026-05-05 15:12 | 47.12389 | 1.05718 | 36847 ft | 441 kts | 181° |
| 2026-05-05 15:13 | 47.06250 | 1.05578 | 36842 ft | 441 kts | 181° |
| 2026-05-05 15:13 | 47.00115 | 1.05433 | 36846 ft | 441 kts | 181° |
| 2026-05-05 15:14 | 46.93982 | 1.05174 | 36849 ft | 441 kts | 182° |
| 2026-05-05 15:14 | 46.87854 | 1.04875 | 36854 ft | 441 kts | 182° |
| 2026-05-05 15:15 | 46.81727 | 1.04596 | 36850 ft | 441 kts | 182° |
| 2026-05-05 15:15 | 46.75598 | 1.04341 | 36855 ft | 440 kts | 182° |
| 2026-05-05 15:16 | 46.69471 | 1.04087 | 36852 ft | 441 kts | 182° |
| 2026-05-05 15:16 | 46.63342 | 1.03824 | 36865 ft | 440 kts | 182° |
| 2026-05-05 15:17 | 46.57215 | 1.03564 | 36860 ft | 441 kts | 182° |
| 2026-05-05 15:17 | 46.51086 | 1.03638 | 36868 ft | 441 kts | 173° |
| 2026-05-05 15:18 | 46.45085 | 1.05532 | 36873 ft | 442 kts | 168° |
| 2026-05-05 15:18 | 46.39093 | 1.07537 | 36877 ft | 442 kts | 168° |
| 2026-05-05 15:19 | 46.33099 | 1.09516 | 36875 ft | 442 kts | 168° |
| 2026-05-05 15:19 | 46.27101 | 1.11507 | 36885 ft | 442 kts | 168° |
| 2026-05-05 15:20 | 46.21106 | 1.13509 | 36900 ft | 442 kts | 168° |
| 2026-05-05 15:20 | 46.15105 | 1.15500 | 36907 ft | 443 kts | 168° |
| 2026-05-05 15:21 | 46.09102 | 1.17482 | 36910 ft | 443 kts | 168° |
| 2026-05-05 15:21 | 46.03092 | 1.19464 | 36904 ft | 443 kts | 168° |
| 2026-05-05 15:22 | 45.97084 | 1.21435 | 36918 ft | 443 kts | 169° |
| 2026-05-05 15:22 | 45.91083 | 1.23399 | 36910 ft | 443 kts | 169° |
| 2026-05-05 15:23 | 45.85075 | 1.25369 | 36916 ft | 443 kts | 169° |
| 2026-05-05 15:23 | 45.79071 | 1.27334 | 36920 ft | 443 kts | 169° |
| 2026-05-05 15:24 | 45.73066 | 1.29293 | 36915 ft | 443 kts | 169° |
| 2026-05-05 15:24 | 45.67047 | 1.31251 | 36931 ft | 444 kts | 169° |
| 2026-05-05 15:25 | 45.61031 | 1.33218 | 36930 ft | 444 kts | 169° |
| 2026-05-05 15:25 | 45.55006 | 1.35178 | 36928 ft | 444 kts | 169° |
| 2026-05-05 15:26 | 45.48984 | 1.37119 | 36927 ft | 444 kts | 169° |
| 2026-05-05 15:26 | 45.42952 | 1.39061 | 36931 ft | 444 kts | 169° |
| 2026-05-05 15:27 | 45.36924 | 1.40993 | 36931 ft | 444 kts | 170° |
| 2026-05-05 15:27 | 45.30901 | 1.42928 | 36933 ft | 444 kts | 170° |
| 2026-05-05 15:28 | 45.24885 | 1.44862 | 36938 ft | 443 kts | 170° |
| 2026-05-05 15:28 | 45.18904 | 1.46779 | 36948 ft | 443 kts | 170° |
| 2026-05-05 15:29 | 45.12894 | 1.48697 | 36954 ft | 443 kts | 170° |
| 2026-05-05 15:29 | 45.06847 | 1.50624 | 36957 ft | 442 kts | 170° |
| 2026-05-05 15:30 | 45.00886 | 1.52519 | 36959 ft | 442 kts | 170° |
| 2026-05-05 15:30 | 44.94890 | 1.54418 | 36936 ft | 441 kts | 171° |
| 2026-05-05 15:31 | 44.88900 | 1.56307 | 36942 ft | 441 kts | 170° |
| 2026-05-05 15:31 | 44.82905 | 1.58205 | 36947 ft | 441 kts | 170° |
| 2026-05-05 15:32 | 44.76914 | 1.60097 | 36950 ft | 441 kts | 170° |
| 2026-05-05 15:32 | 44.70921 | 1.61983 | 36948 ft | 441 kts | 171° |
| 2026-05-05 15:33 | 44.64933 | 1.63856 | 36948 ft | 441 kts | 171° |
| 2026-05-05 15:33 | 44.58940 | 1.65729 | 36938 ft | 441 kts | 171° |
| 2026-05-05 15:34 | 44.52947 | 1.67602 | 36948 ft | 441 kts | 171° |
| 2026-05-05 15:34 | 44.46954 | 1.69480 | 36947 ft | 441 kts | 171° |
| 2026-05-05 15:35 | 44.40961 | 1.71344 | 36947 ft | 441 kts | 171° |
| 2026-05-05 15:35 | 44.34975 | 1.73196 | 36934 ft | 440 kts | 171° |
| 2026-05-05 15:36 | 44.28998 | 1.75032 | 36946 ft | 440 kts | 172° |
| 2026-05-05 15:36 | 44.22984 | 1.76522 | 36947 ft | 438 kts | 175° |
| 2026-05-05 15:37 | 44.16950 | 1.77738 | 36943 ft | 438 kts | 175° |
| 2026-05-05 15:37 | 44.10917 | 1.78974 | 36943 ft | 438 kts | 175° |
| 2026-05-05 15:38 | 44.04893 | 1.80288 | 36944 ft | 438 kts | 174° |
| 2026-05-05 15:38 | 43.98878 | 1.81638 | 36932 ft | 438 kts | 175° |
| 2026-05-05 15:39 | 43.92863 | 1.82840 | 36939 ft | 435 kts | 178° |
| 2026-05-05 15:39 | 43.86835 | 1.83447 | 36948 ft | 434 kts | 181° |
| 2026-05-05 15:40 | 43.80809 | 1.83863 | 36935 ft | 433 kts | 181° |
| 2026-05-05 15:40 | 43.74790 | 1.84379 | 36944 ft | 434 kts | 180° |
| 2026-05-05 15:41 | 43.69790 | 1.84882 | 36951 ft | 434 kts | 180° |
| 2026-05-05 15:41 | 43.63772 | 1.85495 | 36951 ft | 433 kts | 180° |
| 2026-05-05 15:42 | 43.57766 | 1.86083 | 36946 ft | 432 kts | 180° |
| 2026-05-05 15:42 | 43.51767 | 1.86652 | 36948 ft | 432 kts | 181° |
| 2026-05-05 15:43 | 43.45773 | 1.87215 | 36949 ft | 432 kts | 180° |
| 2026-05-05 15:43 | 43.39778 | 1.87779 | 36930 ft | 431 kts | 181° |
| 2026-05-05 15:44 | 43.33794 | 1.88352 | 36943 ft | 431 kts | 181° |
| 2026-05-05 15:44 | 43.27814 | 1.88933 | 36947 ft | 431 kts | 181° |
| 2026-05-05 15:45 | 43.21836 | 1.89509 | 36949 ft | 431 kts | 181° |
| 2026-05-05 15:45 | 43.15861 | 1.90080 | 36944 ft | 430 kts | 181° |
| 2026-05-05 15:46 | 43.09892 | 1.90646 | 36954 ft | 430 kts | 181° |
| 2026-05-05 15:46 | 43.03922 | 1.91212 | 36952 ft | 429 kts | 181° |
| 2026-05-05 15:47 | 42.97981 | 1.91777 | 36955 ft | 427 kts | 182° |
| 2026-05-05 15:47 | 42.92075 | 1.92335 | 36966 ft | 424 kts | 182° |
| 2026-05-05 15:48 | 42.86198 | 1.92891 | 36974 ft | 423 kts | 182° |
| 2026-05-05 15:48 | 42.80336 | 1.93450 | 36954 ft | 421 kts | 182° |
| 2026-05-05 15:49 | 42.74500 | 1.93995 | 36951 ft | 420 kts | 182° |
| 2026-05-05 15:49 | 42.68664 | 1.94540 | 36949 ft | 420 kts | 182° |
| 2026-05-05 15:50 | 42.62824 | 1.95356 | 36935 ft | 423 kts | 178° |
| 2026-05-05 15:50 | 42.57001 | 1.96615 | 36917 ft | 424 kts | 177° |
| 2026-05-05 15:51 | 42.51179 | 1.97923 | 36922 ft | 424 kts | 178° |
| 2026-05-05 15:51 | 42.45353 | 1.99135 | 36915 ft | 423 kts | 178° |
| 2026-05-05 15:52 | 42.39525 | 2.00287 | 36910 ft | 423 kts | 178° |
| 2026-05-05 15:52 | 42.33700 | 2.01299 | 36904 ft | 420 kts | 181° |
| 2026-05-05 15:53 | 42.27888 | 2.01841 | 36901 ft | 418 kts | 184° |
| 2026-05-05 15:53 | 42.22090 | 2.02259 | 36902 ft | 417 kts | 183° |
| 2026-05-05 15:54 | 42.16294 | 2.02756 | 36881 ft | 417 kts | 183° |
| 2026-05-05 15:54 | 42.10506 | 2.03310 | 36894 ft | 417 kts | 182° |
| 2026-05-05 15:55 | 42.04727 | 2.03869 | 36900 ft | 416 kts | 182° |
| 2026-05-05 15:55 | 41.98954 | 2.04419 | 36893 ft | 416 kts | 183° |
| 2026-05-05 15:56 | 41.93180 | 2.04962 | 36873 ft | 416 kts | 183° |
| 2026-05-05 15:56 | 41.87400 | 2.05500 | 36885 ft | 416 kts | 183° |
| 2026-05-05 15:57 | 41.81629 | 2.06037 | 36888 ft | 416 kts | 183° |
| 2026-05-05 15:57 | 41.75856 | 2.06579 | 36898 ft | 416 kts | 183° |
| 2026-05-05 15:58 | 41.70085 | 2.07111 | 36883 ft | 416 kts | 183° |
| 2026-05-05 15:58 | 41.64307 | 2.07655 | 36905 ft | 416 kts | 183° |
| 2026-05-05 15:59 | 41.58524 | 2.08196 | 36907 ft | 417 kts | 183° |
| 2026-05-05 15:59 | 41.52735 | 2.08737 | 36902 ft | 417 kts | 183° |
| 2026-05-05 16:00 | 41.46951 | 2.09280 | 36899 ft | 417 kts | 184° |
| 2026-05-05 16:00 | 41.41201 | 2.09814 | 36908 ft | 417 kts | 184° |
| 2026-05-05 16:01 | 41.35408 | 2.10346 | 36916 ft | 417 kts | 184° |
| 2026-05-05 16:01 | 41.29614 | 2.10895 | 36886 ft | 418 kts | 183° |
| 2026-05-05 16:02 | 41.23807 | 2.11780 | 36896 ft | 422 kts | 180° |
| 2026-05-05 16:02 | 41.17992 | 2.12858 | 36898 ft | 422 kts | 180° |
| 2026-05-05 16:03 | 41.12169 | 2.13907 | 36902 ft | 422 kts | 181° |
| 2026-05-05 16:03 | 41.06348 | 2.14882 | 36886 ft | 422 kts | 181° |
| 2026-05-05 16:04 | 41.00527 | 2.15840 | 36892 ft | 422 kts | 181° |
| 2026-05-05 16:04 | 40.94706 | 2.16805 | 36893 ft | 422 kts | 181° |
| 2026-05-05 16:05 | 40.88881 | 2.17770 | 36876 ft | 422 kts | 181° |
| 2026-05-05 16:05 | 40.83064 | 2.18740 | 36889 ft | 421 kts | 181° |
| 2026-05-05 16:06 | 40.77260 | 2.19702 | 36901 ft | 420 kts | 181° |
| 2026-05-05 16:06 | 40.70929 | 2.20742 | 36906 ft | 420 kts | 181° |
| 2026-05-05 16:07 | 40.59341 | 2.22655 | 36905 ft | 420 kts | 181° |
| 2026-05-05 16:07 | 40.47757 | 2.24560 | 36910 ft | 419 kts | 181° |
| 2026-05-05 16:08 | 40.36186 | 2.26782 | 36910 ft | 423 kts | 178° |
| 2026-05-05 16:08 | 40.24670 | 2.29964 | 36896 ft | 422 kts | 177° |
| 2026-05-05 16:09 | 40.13178 | 2.32920 | 36889 ft | 420 kts | 178° |
| 2026-05-05 16:09 | 40.01716 | 2.35871 | 36903 ft | 420 kts | 178° |
| 2026-05-05 16:10 | 39.95139 | 2.37556 | 36876 ft | 420 kts | 178° |
| 2026-05-05 16:10 | 39.89401 | 2.39009 | 36886 ft | 420 kts | 178° |
| 2026-05-05 16:11 | 39.83648 | 2.40429 | 36890 ft | 417 kts | 182° |
| 2026-05-05 16:11 | 39.75812 | 2.37629 | 34458 ft | 392 kts | 218° |
| 2026-05-05 16:12 | 39.73551 | 2.35628 | 33525 ft | 394 kts | 217° |
| 2026-05-05 16:12 | 39.69001 | 2.31641 | 30573 ft | 398 kts | 217° |
| 2026-05-05 16:13 | 39.61932 | 2.25495 | 26257 ft | 409 kts | 217° |
| 2026-05-05 16:13 | 39.59570 | 2.23450 | 25021 ft | 407 kts | 217° |
| 2026-05-05 16:13 | 39.57219 | 2.21420 | 23892 ft | 403 kts | 218° |
| 2026-05-05 16:14 | 39.52590 | 2.17417 | 21526 ft | 396 kts | 218° |
| 2026-05-05 16:14 | 39.48057 | 2.13493 | 19492 ft | 388 kts | 217° |
| 2026-05-05 16:15 | 39.43613 | 2.09658 | 17538 ft | 380 kts | 217° |
| 2026-05-05 16:15 | 39.39252 | 2.05906 | 15573 ft | 374 kts | 216° |
| 2026-05-05 16:16 | 39.34958 | 2.02207 | 13779 ft | 367 kts | 216° |
| 2026-05-05 16:16 | 39.30742 | 1.98575 | 11766 ft | 361 kts | 216° |
| 2026-05-05 16:17 | 39.26634 | 1.95050 | 10725 ft | 339 kts | 215° |
| 2026-05-05 16:17 | 39.24717 | 1.93414 | 10599 ft | 321 kts | 216° |
| 2026-05-05 16:18 | 39.21174 | 1.90385 | 10367 ft | 291 kts | 216° |
| 2026-05-05 16:18 | 39.19521 | 1.88971 | 10245 ft | 279 kts | 216° |
| 2026-05-05 16:18 | 39.16366 | 1.86270 | 9889 ft | 269 kts | 216° |
| 2026-05-05 16:19 | 39.14812 | 1.84938 | 9898 ft | 268 kts | 216° |
| 2026-05-05 16:19 | 39.13256 | 1.83600 | 9702 ft | 269 kts | 216° |
| 2026-05-05 16:19 | 39.10138 | 1.80934 | 8841 ft | 266 kts | 216° |
| 2026-05-05 16:20 | 39.07052 | 1.78307 | 7427 ft | 266 kts | 216° |
| 2026-05-05 16:20 | 39.04049 | 1.75758 | 6744 ft | 247 kts | 216° |
| 2026-05-05 16:21 | 39.01899 | 1.72648 | 6172 ft | 234 kts | 243° |
| 2026-05-05 16:22 | 38.99638 | 1.67323 | 4886 ft | 238 kts | 243° |
| 2026-05-05 16:22 | 38.98232 | 1.63891 | 4303 ft | 230 kts | 243° |
| 2026-05-05 16:23 | 38.96758 | 1.60299 | 3701 ft | 225 kts | 244° |
| 2026-05-05 16:23 | 38.96034 | 1.58536 | 3407 ft | 222 kts | 244° |
| 2026-05-05 16:23 | 38.94847 | 1.55649 | 2927 ft | 218 kts | 244° |
| 2026-05-05 16:24 | 38.94142 | 1.53935 | 2636 ft | 214 kts | 244° |
| 2026-05-05 16:24 | 38.93460 | 1.52279 | 2356 ft | 206 kts | 243° |
| 2026-05-05 16:24 | 38.92175 | 1.49159 | 1836 ft | 187 kts | 243° |
| 2026-05-05 16:25 | 38.91593 | 1.47747 | 1600 ft | 169 kts | 243° |
| 2026-05-05 16:25 | 38.90625 | 1.45384 | 1055 ft | 135 kts | 242° |
| 2026-05-05 16:25 | 38.90208 | 1.44368 | 923 ft | 125 kts | 242° |
| 2026-05-05 16:26 | 38.89407 | 1.42433 | 663 ft | 123 kts | 240° |
| 2026-05-05 16:26 | 38.88606 | 1.40510 | 373 ft | 121 kts | 241° |
| 2026-05-05 16:27 | 38.88208 | 1.39550 | 207 ft | 121 kts | 240° |
| 2026-05-05 16:27 | 38.87819 | 1.38605 | 39 ft | 118 kts | 240° |
| 2026-05-05 16:27 | 38.87484 | 1.37805 | 11 ft | 80 kts | 242° |
| 2026-05-05 16:27 | 38.87308 | 1.37367 | 10 ft | 31 kts | 241° |
| 2026-05-05 16:28 | 38.87257 | 1.37179 | 12 ft | 21 kts | 266° |
| 2026-05-05 16:28 | 38.87265 | 1.36990 | 9 ft | 16 kts | 272° |
| 2026-05-05 16:28 | 38.87265 | 1.36963 | 9 ft | 1 kts | 270° |
| 2026-05-05 16:28 | 38.87265 | 1.36947 | 9 ft | 3 kts | 270° |
| 2026-05-05 16:29 | 38.87267 | 1.36915 | 9 ft | 4 kts | 280° |
| 2026-05-05 16:29 | 38.87284 | 1.36879 | 9 ft | 5 kts | 316° |
| 2026-05-05 16:29 | 38.87320 | 1.36851 | 9 ft | 7 kts | 329° |
| 2026-05-05 16:29 | 38.87364 | 1.36822 | 10 ft | 8 kts | 334° |
| 2026-05-05 16:30 | 38.87417 | 1.36799 | 9 ft | 8 kts | 8° |
| 2026-05-05 16:30 | 38.87458 | 1.36850 | 9 ft | 9 kts | 61° |
| 2026-05-05 16:30 | 38.87488 | 1.36922 | 9 ft | 10 kts | 62° |
| 2026-05-05 16:30 | 38.87522 | 1.37003 | 10 ft | 11 kts | 63° |
| 2026-05-05 16:31 | 38.87557 | 1.37086 | 9 ft | 10 kts | 33° |
| 2026-05-05 16:31 | 38.87611 | 1.37065 | 9 ft | 0 kts | 332° |
| 2026-05-05 16:31 | 38.87616 | 1.37062 | 9 ft | 1 kts | 332° |
| 2026-05-05 16:31 | 38.87622 | 1.37057 | 9 ft | 0 kts | 332° |
| 2026-05-05 16:32 | 38.87625 | 1.37056 | 9 ft | 0 kts | 332° |